createdAt,value
2019-04-28T00:00:52.976Z,99.90
2019-04-28T00:03:21.842Z,99.90
2019-04-28T00:05:51.362Z,99.90
2019-04-28T00:08:20.798Z,99.90
2019-04-28T00:10:49.430Z,99.90
2019-04-28T00:13:17.939Z,99.90
2019-04-28T00:15:46.352Z,99.90
2019-04-28T00:18:14.805Z,99.90
2019-04-28T00:20:44.858Z,99.90
2019-04-28T00:23:17.630Z,99.90
2019-04-28T00:26:03.949Z,99.90
2019-04-28T00:28:33.555Z,99.90
2019-04-28T00:31:02.574Z,99.90
2019-04-28T00:33:31.478Z,99.90
2019-04-28T00:36:01.525Z,99.90
2019-04-28T00:38:31.627Z,99.90
2019-04-28T00:41:00.242Z,99.90
2019-04-28T00:43:28.676Z,99.90
2019-04-28T00:45:57.099Z,99.90
2019-04-28T00:48:25.526Z,99.90
2019-04-28T00:50:53.949Z,99.90
2019-04-28T00:53:23.053Z,99.90
2019-04-28T00:55:54.047Z,99.90
2019-04-28T00:58:21.911Z,99.90
2019-04-28T01:00:54.720Z,99.90
2019-04-28T01:03:23.908Z,99.90
2019-04-28T01:05:52.509Z,99.90
2019-04-28T01:08:21.028Z,99.90
2019-04-28T01:10:50.806Z,99.90
2019-04-28T01:13:19.308Z,99.90
2019-04-28T01:15:55.352Z,99.90
2019-04-28T01:18:25.422Z,99.90
2019-04-28T01:20:53.841Z,99.90
2019-04-28T01:23:22.354Z,99.90
2019-04-28T01:25:50.762Z,99.90
2019-04-28T01:28:19.503Z,99.90
2019-04-28T01:30:59.963Z,99.90
2019-04-28T01:33:30.108Z,99.90
2019-04-28T01:36:00.357Z,99.90
2019-04-28T01:38:30.251Z,99.90
2019-04-28T01:40:59.954Z,99.90
2019-04-28T01:43:29.211Z,99.90
2019-04-28T01:46:00.185Z,99.90
2019-04-28T01:48:29.852Z,99.90
2019-04-28T01:50:59.835Z,99.90
2019-04-28T01:53:28.549Z,99.90
2019-04-28T01:55:56.962Z,99.90
2019-04-28T01:58:25.407Z,99.90
2019-04-28T02:00:53.893Z,99.90
2019-04-28T02:03:22.307Z,99.90
2019-04-28T02:05:50.733Z,99.90
2019-04-28T02:08:20.301Z,99.90
2019-04-28T02:10:50.158Z,99.90
2019-04-28T02:13:19.873Z,99.90
2019-04-28T02:15:50.075Z,99.90
2019-04-28T02:18:19.953Z,99.90
2019-04-28T02:20:51.176Z,99.90
2019-04-28T02:23:21.265Z,99.90
2019-04-28T02:25:49.848Z,99.90
2019-04-28T02:28:19.800Z,99.90
2019-04-28T02:30:52.701Z,99.90
2019-04-28T02:33:20.975Z,99.90
2019-04-28T02:35:50.964Z,99.90
2019-04-28T02:38:20.840Z,99.90
2019-04-28T02:40:50.338Z,99.90
2019-04-28T02:43:20.924Z,99.90
2019-04-28T02:45:52.946Z,99.90
2019-04-28T02:48:21.580Z,99.90
2019-04-28T02:50:57.648Z,99.90
2019-04-28T02:53:27.696Z,99.90
2019-04-28T02:55:56.129Z,99.90
2019-04-28T02:58:24.559Z,99.90
2019-04-28T03:01:06.157Z,99.90
2019-04-28T03:03:23.120Z,99.90
2019-04-28T03:05:51.559Z,99.90
2019-04-28T03:08:21.317Z,99.90
2019-04-28T03:10:50.901Z,99.90
2019-04-28T03:13:20.913Z,99.90
2019-04-28T03:15:51.654Z,99.90
2019-04-28T03:18:21.414Z,99.90
2019-04-28T03:20:51.572Z,99.90
2019-04-28T03:23:20.680Z,99.90
2019-04-28T03:25:53.878Z,99.90
2019-04-28T03:28:23.995Z,99.90
2019-04-28T03:31:06.367Z,99.90
2019-04-28T03:33:34.223Z,99.90
2019-04-28T03:36:07.098Z,99.90
2019-04-28T03:38:31.662Z,99.90
2019-04-28T03:41:01.025Z,99.90
2019-04-28T03:43:30.650Z,99.90
2019-04-28T03:46:03.566Z,99.90
2019-04-28T03:48:33.543Z,99.90
2019-04-28T03:51:01.246Z,99.90
2019-04-28T03:53:31.172Z,99.90
2019-04-28T03:56:01.509Z,99.90
2019-04-28T03:58:31.069Z,99.90
2019-04-28T04:01:02.821Z,99.90
2019-04-28T04:03:30.615Z,99.90
2019-04-28T04:06:00.741Z,99.90
2019-04-28T04:08:30.916Z,99.90
2019-04-28T04:11:20.074Z,99.90
2019-04-28T04:13:51.979Z,99.90
2019-04-28T04:16:25.235Z,99.90
2019-04-28T04:19:00.518Z,99.90
2019-04-28T04:21:30.830Z,99.90
2019-04-28T04:24:00.768Z,99.90
2019-04-28T04:26:31.029Z,99.90
2019-04-28T04:29:00.986Z,99.90
2019-04-28T04:31:31.497Z,99.90
2019-04-28T04:34:02.643Z,99.90
2019-04-28T04:36:31.073Z,99.90
2019-04-28T04:39:01.367Z,99.90
2019-04-28T04:41:30.562Z,99.90
2019-04-28T04:44:01.124Z,99.90
2019-04-28T04:46:31.352Z,99.90
2019-04-28T04:49:00.659Z,99.90
2019-04-28T04:51:30.593Z,99.90
2019-04-28T04:54:01.156Z,99.90
2019-04-28T04:56:30.148Z,99.90
2019-04-28T04:59:02.248Z,99.90
2019-04-28T05:01:42.836Z,99.90
2019-04-28T05:04:22.162Z,99.90
2019-04-28T05:06:50.578Z,99.90
2019-04-28T05:09:19.613Z,99.90
2019-04-28T05:11:49.975Z,99.90
2019-04-28T05:14:19.834Z,99.90
2019-04-28T05:16:49.735Z,99.90
2019-04-28T05:19:19.903Z,99.90
2019-04-28T05:21:49.840Z,99.90
2019-04-28T05:24:20.225Z,99.90
2019-04-28T05:26:51.640Z,99.90
2019-04-28T05:29:26.467Z,99.90
2019-04-28T05:31:50.506Z,99.90
2019-04-28T05:34:20.480Z,99.90
2019-04-28T05:36:50.504Z,99.90
2019-04-28T05:39:19.639Z,99.90
2019-04-28T05:41:50.280Z,99.90
2019-04-28T05:44:20.116Z,99.90
2019-04-28T05:46:50.697Z,99.90
2019-04-28T05:49:35.671Z,99.90
2019-04-28T05:52:05.823Z,99.90
2019-04-28T05:54:35.917Z,99.90
2019-04-28T05:57:14.911Z,99.90
2019-04-28T05:59:54.163Z,99.90
2019-04-28T06:02:24.216Z,99.90
2019-04-28T06:04:52.666Z,99.90
2019-04-28T06:07:22.733Z,99.90
2019-04-28T06:09:52.794Z,99.90
2019-04-28T06:12:21.603Z,99.90
2019-04-28T06:14:50.280Z,99.90
2019-04-28T06:17:20.632Z,99.90
2019-04-28T06:19:50.464Z,99.90
2019-04-28T06:22:19.014Z,99.90
2019-04-28T06:24:47.433Z,99.90
2019-04-28T06:27:15.849Z,99.90
2019-04-28T06:29:44.271Z,99.90
2019-04-28T06:32:12.727Z,99.90
2019-04-28T06:34:41.161Z,99.90
2019-04-28T06:37:09.579Z,99.90
2019-04-28T06:39:38.081Z,99.90
2019-04-28T06:42:06.535Z,99.90
2019-04-28T06:44:34.980Z,99.90
2019-04-28T06:47:03.395Z,99.90
2019-04-28T06:49:31.830Z,99.90
2019-04-28T06:52:00.269Z,99.90
2019-04-28T06:54:28.683Z,99.90
2019-04-28T06:56:57.120Z,99.90
2019-04-28T06:59:25.547Z,99.90
2019-04-28T07:01:54.048Z,99.90
2019-04-28T07:04:22.507Z,99.90
2019-04-28T07:06:50.938Z,99.90
2019-04-28T07:09:19.362Z,99.90
2019-04-28T07:11:47.795Z,99.90
2019-04-28T07:14:16.217Z,99.90
2019-04-28T07:16:44.652Z,99.90
2019-04-28T07:19:13.079Z,99.90
2019-04-28T07:21:43.154Z,99.90
2019-04-28T07:24:11.579Z,99.90
2019-04-28T07:26:40.035Z,99.90
2019-04-28T07:29:08.470Z,99.90
2019-04-28T07:31:36.893Z,99.90
2019-04-28T07:34:05.351Z,99.90
2019-04-28T07:36:33.778Z,99.90
2019-04-28T07:39:02.297Z,99.90
2019-04-28T07:41:30.771Z,99.90
2019-04-28T07:43:59.247Z,99.90
2019-04-28T07:46:27.956Z,99.90
2019-04-28T07:48:56.435Z,99.90
2019-04-28T07:51:26.489Z,99.90
2019-04-28T07:53:56.634Z,99.90
2019-04-28T07:56:25.062Z,99.90
2019-04-28T07:58:53.523Z,99.90
2019-04-28T08:01:21.946Z,99.90
2019-04-28T08:03:50.391Z,99.90
2019-04-28T08:06:18.894Z,99.90
2019-04-28T08:08:47.339Z,99.90
2019-04-28T08:11:15.773Z,99.90
2019-04-28T08:13:44.215Z,99.90
2019-04-28T08:16:12.658Z,99.90
2019-04-28T08:18:41.184Z,99.90
2019-04-28T08:21:09.770Z,99.90
2019-04-28T08:23:46.999Z,99.90
2019-04-28T08:26:08.467Z,99.90
2019-04-28T08:28:36.893Z,99.90
2019-04-28T08:31:06.664Z,99.90
2019-04-28T08:34:01.275Z,99.90
2019-04-28T08:36:19.302Z,99.90
2019-04-28T08:38:47.737Z,99.90
2019-04-28T08:41:16.155Z,99.90
2019-04-28T08:43:44.602Z,99.90
2019-04-28T08:46:13.019Z,99.90
2019-04-28T08:48:41.450Z,99.90
2019-04-28T08:51:09.897Z,99.90
2019-04-28T08:53:38.354Z,99.90
2019-04-28T08:56:06.874Z,99.90
2019-04-28T08:58:35.289Z,99.90
2019-04-28T09:01:03.741Z,99.90
2019-04-28T09:03:32.162Z,99.90
2019-04-28T09:06:01.497Z,99.90
2019-04-28T09:08:30.136Z,99.90
2019-04-28T09:10:58.582Z,99.90
2019-04-28T09:13:27.003Z,99.90
2019-04-28T09:15:55.453Z,99.90
2019-04-28T09:18:23.870Z,99.90
2019-04-28T09:20:52.337Z,99.90
2019-04-28T09:23:20.765Z,99.90
2019-04-28T09:25:49.198Z,99.90
2019-04-28T09:28:17.623Z,99.90
2019-04-28T09:30:46.430Z,99.90
2019-04-28T09:33:14.873Z,99.90
2019-04-28T09:35:43.306Z,99.90
2019-04-28T09:38:11.738Z,99.90
2019-04-28T09:40:40.174Z,99.90
2019-04-28T09:43:10.258Z,99.90
2019-04-28T09:45:52.387Z,99.90
2019-04-28T09:48:20.833Z,99.90
2019-04-28T09:50:49.281Z,99.90
2019-04-28T09:53:17.718Z,99.90
2019-04-28T09:55:46.173Z,99.90
2019-04-28T09:58:14.959Z,99.90
2019-04-28T10:00:43.390Z,99.90
2019-04-28T10:03:11.811Z,99.90
2019-04-28T10:05:40.355Z,99.90
2019-04-28T10:08:08.837Z,99.90
2019-04-28T10:10:37.287Z,99.90
2019-04-28T10:13:05.716Z,99.90
2019-04-28T10:15:34.163Z,99.90
2019-04-28T10:18:02.692Z,99.90
2019-04-28T10:20:31.183Z,99.90
2019-04-28T10:22:59.625Z,99.90
2019-04-28T10:25:28.049Z,99.90
2019-04-28T10:27:56.476Z,99.90
2019-04-28T10:30:24.908Z,99.90
2019-04-28T10:32:53.426Z,99.90
2019-04-28T10:35:21.905Z,99.90
2019-04-28T10:37:50.354Z,99.90
2019-04-28T10:40:33.239Z,99.90
2019-04-28T10:43:01.727Z,99.90
2019-04-28T10:45:31.797Z,99.90
2019-04-28T10:48:00.236Z,99.90
2019-04-28T10:50:28.662Z,99.90
2019-04-28T10:52:57.103Z,99.90
2019-04-28T10:55:25.517Z,99.90
2019-04-28T10:57:53.971Z,99.90
2019-04-28T11:00:24.219Z,99.90
2019-04-28T11:02:52.643Z,99.90
2019-04-28T11:05:42.114Z,99.90
2019-04-28T11:08:18.428Z,99.90
2019-04-28T11:10:46.846Z,99.90
2019-04-28T11:13:15.474Z,99.90
2019-04-28T11:15:43.969Z,99.90
2019-04-28T11:18:12.756Z,99.90
2019-04-28T11:20:41.174Z,99.90
2019-04-28T11:23:09.752Z,99.90
2019-04-28T11:25:38.189Z,99.90
2019-04-28T11:28:06.804Z,99.90
2019-04-28T11:30:35.214Z,99.90
2019-04-28T11:33:08.324Z,99.90
2019-04-28T11:35:38.922Z,99.90
2019-04-28T11:38:07.507Z,99.90
2019-04-28T11:40:35.937Z,99.90
2019-04-28T11:43:04.443Z,99.90
2019-04-28T11:45:32.956Z,99.90
2019-04-28T11:48:01.405Z,99.90
2019-04-28T11:50:29.902Z,99.90
2019-04-28T11:52:58.410Z,99.90
2019-04-28T11:55:26.911Z,99.90
2019-04-28T11:57:55.362Z,99.90
2019-04-28T12:00:25.421Z,99.90
2019-04-28T12:02:53.877Z,99.90
2019-04-28T12:05:34.060Z,99.90
2019-04-28T12:07:54.139Z,99.90
2019-04-28T12:10:26.864Z,99.90
2019-04-28T12:13:08.783Z,99.90
2019-04-28T12:15:44.862Z,99.90
2019-04-28T12:18:31.260Z,99.90
2019-04-28T12:20:59.663Z,99.90
2019-04-28T12:23:28.105Z,99.60
2019-04-28T12:25:56.614Z,99.90
2019-04-28T12:28:25.047Z,99.80
2019-04-28T12:30:53.538Z,99.50
2019-04-28T12:33:22.004Z,98.80
2019-04-28T12:35:50.503Z,99.90
2019-04-28T12:38:18.957Z,97.60
2019-04-28T12:40:47.387Z,95.40
2019-04-28T12:43:15.817Z,95.10
2019-04-28T12:45:44.261Z,97.20
2019-04-28T12:48:12.685Z,98.40
2019-04-28T12:50:51.435Z,97.50
2019-04-28T12:53:20.433Z,96.30
2019-04-28T12:55:48.901Z,95.60
2019-04-28T12:58:17.341Z,96.30
2019-04-28T13:01:05.544Z,93.80
2019-04-28T13:03:38.450Z,97.40
2019-04-28T13:06:08.516Z,96.00
2019-04-28T13:08:37.124Z,94.60
2019-04-28T13:11:05.559Z,96.90
2019-04-28T13:13:34.003Z,95.10
2019-04-28T13:16:02.459Z,97.60
2019-04-28T13:18:30.900Z,96.90
2019-04-28T13:20:59.330Z,97.70
2019-04-28T13:23:27.775Z,96.50
2019-04-28T13:25:56.212Z,99.30
2019-04-28T13:28:24.684Z,99.90
2019-04-28T13:30:53.109Z,99.90
2019-04-28T13:33:21.546Z,99.60
2019-04-28T13:35:50.054Z,99.90
2019-04-28T13:38:18.478Z,99.90
2019-04-28T13:40:46.923Z,99.90
2019-04-28T13:43:15.347Z,99.90
2019-04-28T13:48:16.818Z,99.90
2019-04-28T13:50:45.275Z,99.90
2019-04-28T13:53:13.704Z,99.90
2019-04-28T13:55:46.673Z,99.90
2019-04-28T13:58:16.899Z,99.90
2019-04-28T14:01:02.250Z,99.90
2019-04-28T14:03:35.222Z,99.90
2019-04-28T14:06:05.366Z,99.90
2019-04-28T14:08:33.777Z,99.90
2019-04-28T14:11:02.241Z,99.90
2019-04-28T14:13:30.722Z,99.90
2019-04-28T14:15:59.185Z,99.90
2019-04-28T14:18:27.610Z,99.90
2019-04-28T14:20:56.115Z,99.90
2019-04-28T14:23:24.601Z,99.90
2019-04-28T14:25:53.088Z,99.90
2019-04-28T14:28:21.646Z,99.90
2019-04-28T14:30:50.115Z,99.90
2019-04-28T14:33:18.536Z,99.90
2019-04-28T14:35:46.976Z,99.90
2019-04-28T14:38:15.433Z,99.10
2019-04-28T14:40:43.952Z,98.00
2019-04-28T14:43:12.368Z,99.90
2019-04-28T14:45:40.827Z,99.90
2019-04-28T14:48:09.262Z,99.10
2019-04-28T14:50:37.716Z,99.90
2019-04-28T14:53:08.636Z,99.90
2019-04-28T14:55:36.331Z,99.30
2019-04-28T14:58:04.876Z,98.70
2019-04-28T15:00:38.379Z,98.00
2019-04-28T15:03:11.448Z,96.00
2019-04-28T15:05:53.605Z,97.60
2019-04-28T15:08:40.099Z,96.50
2019-04-28T15:11:16.407Z,96.10
2019-04-28T15:13:44.971Z,96.00
2019-04-28T15:16:13.436Z,94.40
2019-04-28T15:18:41.932Z,94.10
2019-04-28T15:21:10.387Z,94.80
2019-04-28T15:23:38.881Z,94.50
2019-04-28T15:26:07.323Z,95.10
2019-04-28T15:28:35.746Z,95.30
2019-04-28T15:31:04.166Z,92.80
2019-04-28T15:33:32.598Z,94.50
2019-04-28T15:36:01.033Z,93.50
2019-04-28T15:38:29.479Z,92.90
2019-04-28T15:40:57.895Z,95.20
2019-04-28T15:43:26.384Z,95.70
2019-04-28T15:45:54.827Z,95.50
2019-04-28T15:48:23.277Z,94.50
2019-04-28T15:50:51.972Z,94.90
2019-04-28T15:53:20.495Z,94.10
2019-04-28T15:55:50.557Z,95.00
2019-04-28T15:58:38.494Z,94.80
2019-04-28T16:01:07.260Z,93.80
2019-04-28T16:03:35.700Z,93.60
2019-04-28T16:06:04.356Z,92.50
2019-04-28T16:08:32.790Z,93.10
2019-04-28T16:11:01.208Z,95.30
2019-04-28T16:13:29.645Z,96.00
2019-04-28T16:15:58.147Z,95.70
2019-04-28T16:18:26.660Z,95.60
2019-04-28T16:20:59.034Z,96.10
2019-04-28T16:23:27.461Z,95.00
2019-04-28T16:25:56.829Z,95.30
2019-04-28T16:28:25.333Z,94.40
2019-04-28T16:30:54.685Z,95.50
2019-04-28T16:33:23.121Z,95.80
2019-04-28T16:35:51.550Z,95.70
2019-04-28T16:38:20.003Z,96.50
2019-04-28T16:40:48.429Z,96.30
2019-04-28T16:43:16.857Z,97.40
2019-04-28T16:45:45.278Z,96.80
2019-04-28T16:48:13.707Z,97.10
2019-04-28T16:50:42.164Z,97.60
2019-04-28T16:53:10.709Z,98.00
2019-04-28T16:55:47.213Z,97.60
2019-04-28T16:58:23.634Z,97.30
2019-04-28T17:00:53.847Z,97.80
2019-04-28T17:03:22.289Z,97.80
2019-04-28T17:05:50.709Z,98.10
2019-04-28T17:08:19.183Z,99.60
2019-04-28T17:10:47.638Z,99.80
2019-04-28T17:13:16.085Z,98.10
2019-04-28T17:15:44.603Z,98.80
2019-04-28T17:18:13.038Z,97.30
2019-04-28T17:20:41.467Z,98.50
2019-04-28T17:23:09.901Z,98.60
2019-04-28T17:25:38.336Z,97.90
2019-04-28T17:28:07.077Z,97.30
2019-04-28T17:30:35.885Z,98.40
2019-04-28T17:33:04.304Z,96.50
2019-04-28T17:35:33.300Z,96.70
2019-04-28T17:38:06.677Z,97.60
2019-04-28T17:40:32.249Z,98.70
2019-04-28T17:43:00.679Z,99.80
2019-04-28T17:45:29.199Z,98.90
2019-04-28T17:47:59.272Z,99.90
2019-04-28T17:50:28.082Z,99.90
2019-04-28T17:52:56.512Z,98.40
2019-04-28T17:55:24.949Z,99.90
2019-04-28T17:57:53.366Z,99.90
2019-04-28T18:00:23.834Z,99.90
2019-04-28T18:02:56.662Z,99.90
2019-04-28T18:05:26.725Z,99.90
2019-04-28T18:07:56.846Z,99.90
2019-04-28T18:10:25.927Z,99.90
2019-04-28T18:13:00.880Z,99.90
2019-04-28T18:15:26.221Z,99.90
2019-04-28T18:18:05.382Z,99.90
2019-04-28T18:20:33.822Z,99.90
2019-04-28T18:23:02.247Z,99.90
2019-04-28T18:25:30.689Z,99.90
2019-04-28T18:27:59.123Z,99.90
2019-04-28T18:30:29.215Z,99.90
2019-04-28T18:32:59.303Z,99.90
2019-04-28T18:35:29.375Z,99.90
2019-04-28T18:38:02.439Z,99.90
2019-04-28T18:40:32.800Z,99.90
2019-04-28T18:43:05.604Z,99.90
2019-04-28T18:45:34.130Z,99.90
2019-04-28T18:48:02.543Z,99.90
2019-04-28T18:50:30.982Z,99.90
2019-04-28T18:52:59.402Z,99.90
2019-04-28T18:55:28.883Z,99.90
2019-04-28T18:57:57.342Z,99.90
2019-04-28T19:00:27.755Z,99.90
2019-04-28T19:02:56.178Z,99.90
2019-04-28T19:05:26.574Z,99.90
2019-04-28T19:08:13.246Z,99.90
2019-04-28T19:10:43.319Z,99.90
2019-04-28T19:13:19.163Z,99.90
2019-04-28T19:15:58.294Z,99.90
2019-04-28T19:18:40.522Z,99.90
2019-04-28T19:21:08.955Z,99.90
2019-04-28T19:23:37.398Z,99.90
2019-04-28T19:26:05.839Z,99.90
2019-04-28T19:28:34.269Z,99.90
2019-04-28T19:31:02.715Z,99.90
2019-04-28T19:33:31.132Z,99.90
2019-04-28T19:35:59.575Z,99.90
2019-04-28T19:38:28.013Z,99.90
2019-04-28T19:40:56.430Z,99.90
2019-04-28T19:43:24.866Z,99.90
2019-04-28T19:45:54.918Z,99.90
2019-04-28T19:48:23.666Z,99.90
2019-04-28T19:50:52.089Z,99.90
2019-04-28T19:53:20.539Z,99.90
2019-04-28T19:56:02.615Z,99.90
2019-04-28T19:58:44.461Z,99.90
2019-04-28T20:01:20.884Z,99.90
2019-04-28T20:03:49.438Z,99.90
2019-04-28T20:06:17.863Z,99.90
2019-04-28T20:08:46.287Z,99.90
2019-04-28T20:11:14.707Z,99.90
2019-04-28T20:13:43.220Z,99.90
2019-04-28T20:16:11.664Z,99.90
2019-04-28T20:18:40.146Z,99.90
2019-04-28T20:21:08.628Z,99.90
2019-04-28T20:23:37.089Z,99.90
2019-04-28T20:26:05.529Z,99.90
2019-04-28T20:28:34.004Z,99.90
2019-04-28T20:31:02.417Z,99.90
2019-04-28T20:33:30.960Z,99.90
2019-04-28T20:36:03.555Z,99.90
2019-04-28T20:38:33.359Z,99.90
2019-04-28T20:41:03.547Z,99.90
2019-04-28T20:43:32.182Z,99.90
2019-04-28T20:46:00.650Z,99.90
2019-04-28T20:48:29.146Z,99.90
2019-04-28T20:50:57.603Z,99.90
2019-04-28T20:53:26.080Z,99.90
2019-04-28T20:55:54.497Z,99.90
2019-04-28T20:58:22.931Z,99.90
2019-04-28T21:00:51.363Z,99.90
2019-04-28T21:03:19.895Z,99.90
2019-04-28T21:05:48.302Z,99.90
2019-04-28T21:08:16.735Z,99.90
2019-04-28T21:10:45.157Z,99.90
2019-04-28T21:13:13.599Z,99.90
2019-04-28T21:15:42.016Z,99.90
2019-04-28T21:18:10.445Z,99.90
2019-04-28T21:20:38.867Z,99.90
2019-04-28T21:23:07.308Z,99.90
2019-04-28T21:25:35.729Z,99.90
2019-04-28T21:28:04.524Z,99.90
2019-04-28T21:30:32.965Z,99.90
2019-04-28T21:33:01.375Z,99.90
2019-04-28T21:35:29.875Z,99.90
2019-04-28T21:37:58.632Z,99.90
2019-04-28T21:40:27.698Z,99.90
2019-04-28T21:42:57.766Z,99.90
2019-04-28T21:45:42.979Z,99.90
2019-04-28T21:48:12.468Z,99.90
2019-04-28T21:50:40.898Z,99.90
2019-04-28T21:53:09.312Z,99.90
2019-04-28T21:55:37.747Z,99.90
2019-04-28T21:58:06.229Z,99.90
2019-04-28T22:00:54.171Z,99.90
2019-04-28T22:03:22.583Z,99.90
2019-04-28T22:05:51.081Z,99.90
2019-04-28T22:08:19.498Z,99.90
2019-04-28T22:10:47.946Z,99.90
2019-04-28T22:13:16.355Z,99.90
2019-04-28T22:15:44.781Z,99.90
2019-04-28T22:18:13.320Z,99.90
2019-04-28T22:20:41.775Z,99.90
2019-04-28T22:23:27.791Z,99.90
2019-04-28T22:25:56.251Z,99.90
2019-04-28T22:28:24.659Z,99.90
2019-04-28T22:30:53.088Z,99.90
2019-04-28T22:33:21.501Z,99.90
2019-04-28T22:35:49.946Z,99.90
2019-04-28T22:38:18.367Z,99.90
2019-04-28T22:40:46.798Z,99.90
2019-04-28T22:43:15.283Z,99.90
2019-04-28T22:45:43.710Z,99.90
2019-04-28T22:48:14.111Z,99.90
2019-04-28T22:50:44.878Z,99.90
2019-04-28T22:53:15.231Z,99.90
2019-04-28T22:55:45.309Z,99.90
2019-04-28T22:58:15.378Z,99.90
2019-04-28T23:00:45.524Z,99.90
2019-04-28T23:03:18.313Z,99.90
2019-04-28T23:05:46.746Z,99.90
2019-04-28T23:08:15.166Z,99.90
2019-04-28T23:10:43.645Z,99.90
2019-04-28T23:13:12.103Z,99.90
2019-04-28T23:15:40.540Z,99.90
2019-04-28T23:18:09.041Z,99.90
2019-04-28T23:20:39.185Z,99.90
2019-04-28T23:23:09.391Z,99.90
2019-04-28T23:25:37.834Z,99.90
2019-04-28T23:28:06.255Z,99.90
2019-04-28T23:30:37.757Z,99.90
2019-04-28T23:33:06.179Z,99.90
2019-04-28T23:35:34.696Z,99.90
2019-04-28T23:38:03.119Z,99.90
2019-04-28T23:40:31.539Z,99.90
2019-04-28T23:43:01.617Z,99.90
2019-04-28T23:45:30.034Z,99.90
2019-04-28T23:47:58.472Z,99.90
2019-04-28T23:50:29.186Z,99.90
2019-04-28T23:53:01.745Z,99.90
2019-04-28T23:55:30.176Z,99.90
2019-04-28T23:57:58.615Z,99.90
